Terminal Aerodrome Forecast
Issued by NWS Albany, NY

Home | Current Version | Previous Version | Text Only | Print | Product List | Glossary On
Versions: 1 2 3 4 5 6 7 8 9 10 11 12 13 14 15 16 17 18 19 20 21 22 23 24 25 26 27 28 29 30 31 32 33 34
000
FTUS41 KALY 270500 CCB
TAFPOU
TAF COR
KPOU 270555Z 2706/2806 35011KT 2SM -SN OVC040
      TEMPO 2706/2708 1SM -SN BR OVC008
     FM270800 01012G18KT 2SM -SN BR OVC015
      TEMPO 2708/2712 1/2SM SN FZFG OVC008
     FM272100 34012G22KT 5SM -SN BR OVC025
     FM280000 33010G20KT P6SM OVC045=

USA.gov is the U.S. government's official web portal to all federal, state and local government web resources and services.